sensor_id;sensor_type;location;lat;lon;timestamp;temperature;humidity
18175;DHT22;9212;50.894;16.714;2023-02-28T00:00:11;-2.10;99.90
18175;DHT22;9212;50.894;16.714;2023-02-28T00:02:39;-2.10;99.90
18175;DHT22;9212;50.894;16.714;2023-02-28T00:07:36;-2.00;99.90
18175;DHT22;9212;50.894;16.714;2023-02-28T00:29:46;-1.80;99.90
18175;DHT22;9212;50.894;16.714;2023-02-28T00:51:58;-1.80;99.90
18175;DHT22;9212;50.894;16.714;2023-02-28T01:36:17;-1.60;99.90
18175;DHT22;9212;50.894;16.714;2023-02-28T01:41:16;-1.60;99.90
18175;DHT22;9212;50.894;16.714;2023-02-28T01:44:00;-1.30;99.90
18175;DHT22;9212;50.894;16.714;2023-02-28T01:46:31;-1.60;99.90
18175;DHT22;9212;50.894;16.714;2023-02-28T01:49:05;-1.10;99.90
18175;DHT22;9212;50.894;16.714;2023-02-28T01:51:38;-1.70;99.90
18175;DHT22;9212;50.894;16.714;2023-02-28T01:54:15;-1.70;99.90
18175;DHT22;9212;50.894;16.714;2023-02-28T01:56:45;-1.70;99.90
18175;DHT22;9212;50.894;16.714;2023-02-28T01:59:21;-1.70;99.90
18175;DHT22;9212;50.894;16.714;2023-02-28T03:20:39;-2.30;99.90
18175;DHT22;9212;50.894;16.714;2023-02-28T03:25:51;-2.40;99.90
18175;DHT22;9212;50.894;16.714;2023-02-28T03:28:27;-2.40;99.90
18175;DHT22;9212;50.894;16.714;2023-02-28T03:31:00;-2.60;99.90
18175;DHT22;9212;50.894;16.714;2023-02-28T03:33:34;-1.10;99.90
18175;DHT22;9212;50.894;16.714;2023-02-28T03:36:06;-2.50;99.90
18175;DHT22;9212;50.894;16.714;2023-02-28T03:38:38;-2.40;99.90
18175;DHT22;9212;50.894;16.714;2023-02-28T03:41:12;-2.50;99.90
18175;DHT22;9212;50.894;16.714;2023-02-28T03:43:44;-2.60;99.90
18175;DHT22;9212;50.894;16.714;2023-02-28T03:46:14;-2.50;99.90
18175;DHT22;9212;50.894;16.714;2023-02-28T03:48:49;-2.70;99.90
18175;DHT22;9212;50.894;16.714;2023-02-28T03:51:19;-2.60;99.90
18175;DHT22;9212;50.894;16.714;2023-02-28T03:53:52;-2.10;99.90
18175;DHT22;9212;50.894;16.714;2023-02-28T03:56:24;-2.50;99.90
18175;DHT22;9212;50.894;16.714;2023-02-28T03:58:58;-1.50;99.90
18175;DHT22;9212;50.894;16.714;2023-02-28T04:01:30;-2.50;99.90
18175;DHT22;9212;50.894;16.714;2023-02-28T04:08:53;-2.50;99.90
18175;DHT22;9212;50.894;16.714;2023-02-28T04:11:24;-2.60;99.90
18175;DHT22;9212;50.894;16.714;2023-02-28T04:13:52;-2.10;99.90
18175;DHT22;9212;50.894;16.714;2023-02-28T04:18:47;-2.70;99.90
18175;DHT22;9212;50.894;16.714;2023-02-28T04:23:41;-2.70;99.90
18175;DHT22;9212;50.894;16.714;2023-02-28T04:26:08;-2.70;99.90
18175;DHT22;9212;50.894;16.714;2023-02-28T04:28:37;-2.10;99.90
18175;DHT22;9212;50.894;16.714;2023-02-28T04:31:05;-2.70;99.90
18175;DHT22;9212;50.894;16.714;2023-02-28T04:36:01;-2.90;99.90
18175;DHT22;9212;50.894;16.714;2023-02-28T04:40:57;-2.90;99.90
18175;DHT22;9212;50.894;16.714;2023-02-28T04:43:26;-2.90;99.90
18175;DHT22;9212;50.894;16.714;2023-02-28T04:48:23;-2.80;99.90
18175;DHT22;9212;50.894;16.714;2023-02-28T06:26:55;-2.60;99.90
18175;DHT22;9212;50.894;16.714;2023-02-28T06:29:25;-2.80;99.90
18175;DHT22;9212;50.894;16.714;2023-02-28T06:41:45;-1.90;99.90
18175;DHT22;9212;50.894;16.714;2023-02-28T06:44:15;-1.80;99.90
18175;DHT22;9212;50.894;16.714;2023-02-28T06:46:44;-1.90;99.90
18175;DHT22;9212;50.894;16.714;2023-02-28T06:54:07;-1.50;99.90
18175;DHT22;9212;50.894;16.714;2023-02-28T07:04:00;-0.70;99.90
18175;DHT22;9212;50.894;16.714;2023-02-28T07:06:27;-0.40;99.90
18175;DHT22;9212;50.894;16.714;2023-02-28T07:08:54;0.10;99.90
18175;DHT22;9212;50.894;16.714;2023-02-28T07:11:23;-0.20;99.90
18175;DHT22;9212;50.894;16.714;2023-02-28T07:13:51;1.50;99.90
18175;DHT22;9212;50.894;16.714;2023-02-28T07:18:45;-0.10;99.90
18175;DHT22;9212;50.894;16.714;2023-02-28T07:21:14;0.60;99.90
18175;DHT22;9212;50.894;16.714;2023-02-28T07:26:11;0.70;99.90
18175;DHT22;9212;50.894;16.714;2023-02-28T07:28:40;0.60;99.90
18175;DHT22;9212;50.894;16.714;2023-02-28T07:31:08;1.00;99.90
18175;DHT22;9212;50.894;16.714;2023-02-28T07:33:36;1.30;99.90
18175;DHT22;9212;50.894;16.714;2023-02-28T07:36:04;1.60;99.90
18175;DHT22;9212;50.894;16.714;2023-02-28T07:38:35;1.50;99.90
18175;DHT22;9212;50.894;16.714;2023-02-28T07:41:02;2.10;99.90
18175;DHT22;9212;50.894;16.714;2023-02-28T07:46:01;1.60;99.90
18175;DHT22;9212;50.894;16.714;2023-02-28T07:50:56;0.90;99.90
18175;DHT22;9212;50.894;16.714;2023-02-28T07:55:54;0.70;99.90
18175;DHT22;9212;50.894;16.714;2023-02-28T08:03:17;0.80;99.90
18175;DHT22;9212;50.894;16.714;2023-02-28T08:05:44;1.40;99.90
18175;DHT22;9212;50.894;16.714;2023-02-28T08:08:11;1.50;99.90
18175;DHT22;9212;50.894;16.714;2023-02-28T08:10:38;1.40;99.90
18175;DHT22;9212;50.894;16.714;2023-02-28T08:13:07;1.30;99.90
18175;DHT22;9212;50.894;16.714;2023-02-28T08:15:34;1.00;99.90
18175;DHT22;9212;50.894;16.714;2023-02-28T08:18:01;0.80;99.90
18175;DHT22;9212;50.894;16.714;2023-02-28T08:22:56;1.00;99.90
18175;DHT22;9212;50.894;16.714;2023-02-28T08:27:51;1.00;99.90
18175;DHT22;9212;50.894;16.714;2023-02-28T08:30:19;0.90;99.90
18175;DHT22;9212;50.894;16.714;2023-02-28T08:32:46;1.60;99.90
18175;DHT22;9212;50.894;16.714;2023-02-28T08:37:42;1.10;99.90
18175;DHT22;9212;50.894;16.714;2023-02-28T08:40:12;1.30;99.90
18175;DHT22;9212;50.894;16.714;2023-02-28T08:42:43;1.10;99.90
18175;DHT22;9212;50.894;16.714;2023-02-28T08:47:39;0.90;99.90
18175;DHT22;9212;50.894;16.714;2023-02-28T08:50:07;1.50;99.90
18175;DHT22;9212;50.894;16.714;2023-02-28T08:52:34;1.40;99.90
18175;DHT22;9212;50.894;16.714;2023-02-28T08:55:01;1.80;99.90
18175;DHT22;9212;50.894;16.714;2023-02-28T08:59:55;1.40;99.90
18175;DHT22;9212;50.894;16.714;2023-02-28T09:04:51;1.30;99.90
18175;DHT22;9212;50.894;16.714;2023-02-28T09:07:18;1.50;99.90
18175;DHT22;9212;50.894;16.714;2023-02-28T09:09:45;1.50;99.90
18175;DHT22;9212;50.894;16.714;2023-02-28T09:19:42;1.80;99.90
18175;DHT22;9212;50.894;16.714;2023-02-28T09:22:11;1.90;99.90
18175;DHT22;9212;50.894;16.714;2023-02-28T09:24:38;2.60;99.90
18175;DHT22;9212;50.894;16.714;2023-02-28T09:27:06;2.40;99.90
18175;DHT22;9212;50.894;16.714;2023-02-28T09:29:34;2.00;99.90
18175;DHT22;9212;50.894;16.714;2023-02-28T09:32:01;2.00;99.90
18175;DHT22;9212;50.894;16.714;2023-02-28T09:36:58;2.60;99.90
18175;DHT22;9212;50.894;16.714;2023-02-28T09:39:26;2.60;99.90
18175;DHT22;9212;50.894;16.714;2023-02-28T09:41:55;2.60;99.90
18175;DHT22;9212;50.894;16.714;2023-02-28T09:44:28;2.50;99.90
18175;DHT22;9212;50.894;16.714;2023-02-28T09:46:59;2.70;99.90
18175;DHT22;9212;50.894;16.714;2023-02-28T09:49:34;2.60;99.90
18175;DHT22;9212;50.894;16.714;2023-02-28T09:52:08;2.70;99.90
18175;DHT22;9212;50.894;16.714;2023-02-28T09:54:37;2.90;99.90
18175;DHT22;9212;50.894;16.714;2023-02-28T09:57:13;3.00;99.90
18175;DHT22;9212;50.894;16.714;2023-02-28T09:59:52;2.90;99.90
18175;DHT22;9212;50.894;16.714;2023-02-28T10:05:27;3.50;99.90
18175;DHT22;9212;50.894;16.714;2023-02-28T10:08:02;3.20;99.90
18175;DHT22;9212;50.894;16.714;2023-02-28T10:10:37;4.10;99.90
18175;DHT22;9212;50.894;16.714;2023-02-28T10:13:11;4.10;99.90
18175;DHT22;9212;50.894;16.714;2023-02-28T10:15:40;3.70;99.90
18175;DHT22;9212;50.894;16.714;2023-02-28T10:18:13;3.40;99.90
18175;DHT22;9212;50.894;16.714;2023-02-28T10:20:43;3.90;99.90
18175;DHT22;9212;50.894;16.714;2023-02-28T10:23:15;4.50;99.90
18175;DHT22;9212;50.894;16.714;2023-02-28T10:25:50;4.40;99.90
18175;DHT22;9212;50.894;16.714;2023-02-28T10:30:48;4.10;99.90
18175;DHT22;9212;50.894;16.714;2023-02-28T10:33:22;4.60;99.90
18175;DHT22;9212;50.894;16.714;2023-02-28T10:35:50;5.20;99.90
18175;DHT22;9212;50.894;16.714;2023-02-28T10:38:19;4.70;99.90
18175;DHT22;9212;50.894;16.714;2023-02-28T10:40:48;4.50;99.90
18175;DHT22;9212;50.894;16.714;2023-02-28T10:43:21;3.70;99.90
18175;DHT22;9212;50.894;16.714;2023-02-28T10:45:58;4.20;99.90
18175;DHT22;9212;50.894;16.714;2023-02-28T10:48:30;4.00;99.90
18175;DHT22;9212;50.894;16.714;2023-02-28T10:50:59;4.00;99.90
18175;DHT22;9212;50.894;16.714;2023-02-28T10:53:36;3.60;99.90
18175;DHT22;9212;50.894;16.714;2023-02-28T10:56:12;3.70;99.90
18175;DHT22;9212;50.894;16.714;2023-02-28T10:58:51;4.50;99.90
18175;DHT22;9212;50.894;16.714;2023-02-28T11:01:21;4.70;99.90
18175;DHT22;9212;50.894;16.714;2023-02-28T11:03:49;4.60;99.90
18175;DHT22;9212;50.894;16.714;2023-02-28T11:06:18;4.30;99.90
18175;DHT22;9212;50.894;16.714;2023-02-28T11:08:48;5.10;99.90
18175;DHT22;9212;50.894;16.714;2023-02-28T11:11:17;5.30;99.90
18175;DHT22;9212;50.894;16.714;2023-02-28T11:13:46;5.60;99.90
18175;DHT22;9212;50.894;16.714;2023-02-28T11:16:14;4.80;99.90
18175;DHT22;9212;50.894;16.714;2023-02-28T11:18:46;5.00;99.90
18175;DHT22;9212;50.894;16.714;2023-02-28T11:21:21;4.80;99.90
18175;DHT22;9212;50.894;16.714;2023-02-28T11:23:51;4.70;99.90
18175;DHT22;9212;50.894;16.714;2023-02-28T11:26:40;4.50;99.90
18175;DHT22;9212;50.894;16.714;2023-02-28T11:29:17;5.30;99.90
18175;DHT22;9212;50.894;16.714;2023-02-28T11:32:02;3.70;99.90
18175;DHT22;9212;50.894;16.714;2023-02-28T11:34:30;4.10;99.90
18175;DHT22;9212;50.894;16.714;2023-02-28T11:36:58;4.20;99.90
18175;DHT22;9212;50.894;16.714;2023-02-28T11:42:07;4.20;99.90
18175;DHT22;9212;50.894;16.714;2023-02-28T11:44:48;4.40;99.90
18175;DHT22;9212;50.894;16.714;2023-02-28T11:47:26;4.50;99.90
18175;DHT22;9212;50.894;16.714;2023-02-28T11:50:09;4.90;99.90
18175;DHT22;9212;50.894;16.714;2023-02-28T11:52:42;5.80;99.90
18175;DHT22;9212;50.894;16.714;2023-02-28T11:55:16;4.10;99.90
18175;DHT22;9212;50.894;16.714;2023-02-28T11:58:05;4.50;99.90
18175;DHT22;9212;50.894;16.714;2023-02-28T12:00:44;4.90;99.90
18175;DHT22;9212;50.894;16.714;2023-02-28T12:03:26;5.70;99.90
18175;DHT22;9212;50.894;16.714;2023-02-28T12:06:01;5.00;99.90
18175;DHT22;9212;50.894;16.714;2023-02-28T12:08:44;5.50;99.90
18175;DHT22;9212;50.894;16.714;2023-02-28T12:11:19;5.30;99.90
18175;DHT22;9212;50.894;16.714;2023-02-28T12:13:59;6.20;99.90
18175;DHT22;9212;50.894;16.714;2023-02-28T12:16:42;5.30;99.90
18175;DHT22;9212;50.894;16.714;2023-02-28T12:19:18;5.10;99.90
18175;DHT22;9212;50.894;16.714;2023-02-28T12:27:34;4.80;99.90
18175;DHT22;9212;50.894;16.714;2023-02-28T12:30:08;5.10;99.90
18175;DHT22;9212;50.894;16.714;2023-02-28T12:32:43;5.10;99.90
18175;DHT22;9212;50.894;16.714;2023-02-28T12:35:13;5.00;99.90
18175;DHT22;9212;50.894;16.714;2023-02-28T12:37:44;4.90;99.90
18175;DHT22;9212;50.894;16.714;2023-02-28T12:40:17;5.10;99.90
18175;DHT22;9212;50.894;16.714;2023-02-28T12:42:48;5.30;99.90
18175;DHT22;9212;50.894;16.714;2023-02-28T12:45:20;5.30;99.90
18175;DHT22;9212;50.894;16.714;2023-02-28T12:47:52;5.60;99.90
18175;DHT22;9212;50.894;16.714;2023-02-28T12:50:24;4.70;99.90
18175;DHT22;9212;50.894;16.714;2023-02-28T12:52:56;5.50;99.90
18175;DHT22;9212;50.894;16.714;2023-02-28T12:55:32;4.70;99.90
18175;DHT22;9212;50.894;16.714;2023-02-28T12:58:08;5.00;99.90
18175;DHT22;9212;50.894;16.714;2023-02-28T13:00:52;5.70;99.90
18175;DHT22;9212;50.894;16.714;2023-02-28T13:03:51;5.20;99.90
18175;DHT22;9212;50.894;16.714;2023-02-28T13:06:54;5.00;99.90
18175;DHT22;9212;50.894;16.714;2023-02-28T13:11:53;5.20;99.90
18175;DHT22;9212;50.894;16.714;2023-02-28T13:14:27;5.30;99.90
18175;DHT22;9212;50.894;16.714;2023-02-28T13:17:03;5.30;99.90
18175;DHT22;9212;50.894;16.714;2023-02-28T13:19:38;6.10;99.90
18175;DHT22;9212;50.894;16.714;2023-02-28T13:22:16;5.60;99.90
18175;DHT22;9212;50.894;16.714;2023-02-28T13:24:46;6.10;99.90
18175;DHT22;9212;50.894;16.714;2023-02-28T13:27:35;4.60;99.90
18175;DHT22;9212;50.894;16.714;2023-02-28T13:33:25;4.80;99.90
18175;DHT22;9212;50.894;16.714;2023-02-28T13:36:12;4.50;99.90
18175;DHT22;9212;50.894;16.714;2023-02-28T13:38:51;4.80;99.90
18175;DHT22;9212;50.894;16.714;2023-02-28T13:41:43;4.80;99.90
18175;DHT22;9212;50.894;16.714;2023-02-28T13:44:11;5.10;99.90
18175;DHT22;9212;50.894;16.714;2023-02-28T13:47:22;5.00;99.90
18175;DHT22;9212;50.894;16.714;2023-02-28T13:49:52;4.80;99.90
18175;DHT22;9212;50.894;16.714;2023-02-28T13:52:22;4.60;99.90
18175;DHT22;9212;50.894;16.714;2023-02-28T13:55:03;4.40;99.90
18175;DHT22;9212;50.894;16.714;2023-02-28T13:57:53;5.80;99.90
18175;DHT22;9212;50.894;16.714;2023-02-28T14:00:37;4.40;99.90
18175;DHT22;9212;50.894;16.714;2023-02-28T14:03:22;4.40;99.90
18175;DHT22;9212;50.894;16.714;2023-02-28T14:06:16;4.60;99.90
18175;DHT22;9212;50.894;16.714;2023-02-28T14:08:52;4.60;99.90
18175;DHT22;9212;50.894;16.714;2023-02-28T14:11:26;4.50;99.90
18175;DHT22;9212;50.894;16.714;2023-02-28T14:13:54;5.40;99.90
18175;DHT22;9212;50.894;16.714;2023-02-28T14:16:23;4.00;99.90
18175;DHT22;9212;50.894;16.714;2023-02-28T14:18:56;4.10;99.90
18175;DHT22;9212;50.894;16.714;2023-02-28T14:21:28;3.50;99.90
18175;DHT22;9212;50.894;16.714;2023-02-28T14:24:22;4.10;99.90
18175;DHT22;9212;50.894;16.714;2023-02-28T14:27:03;5.00;99.90
18175;DHT22;9212;50.894;16.714;2023-02-28T14:29:47;4.00;99.90
18175;DHT22;9212;50.894;16.714;2023-02-28T14:32:27;3.90;99.90
18175;DHT22;9212;50.894;16.714;2023-02-28T14:35:03;4.10;99.90
18175;DHT22;9212;50.894;16.714;2023-02-28T14:37:37;3.80;99.90
18175;DHT22;9212;50.894;16.714;2023-02-28T14:40:12;3.80;99.90
18175;DHT22;9212;50.894;16.714;2023-02-28T14:42:47;5.50;99.90
18175;DHT22;9212;50.894;16.714;2023-02-28T14:45:19;3.90;99.90
18175;DHT22;9212;50.894;16.714;2023-02-28T14:47:47;5.00;99.90
18175;DHT22;9212;50.894;16.714;2023-02-28T14:50:21;3.80;99.90
18175;DHT22;9212;50.894;16.714;2023-02-28T14:52:52;3.60;99.90
18175;DHT22;9212;50.894;16.714;2023-02-28T14:55:24;3.70;99.90
18175;DHT22;9212;50.894;16.714;2023-02-28T14:57:54;4.30;99.90
18175;DHT22;9212;50.894;16.714;2023-02-28T15:00:25;3.40;99.90
18175;DHT22;9212;50.894;16.714;2023-02-28T15:02:52;3.60;99.90
18175;DHT22;9212;50.894;16.714;2023-02-28T15:05:26;3.40;99.90
18175;DHT22;9212;50.894;16.714;2023-02-28T15:08:12;3.40;99.90
18175;DHT22;9212;50.894;16.714;2023-02-28T15:10:40;4.00;99.90
18175;DHT22;9212;50.894;16.714;2023-02-28T15:13:13;3.20;99.90
18175;DHT22;9212;50.894;16.714;2023-02-28T15:15:44;3.20;99.90
18175;DHT22;9212;50.894;16.714;2023-02-28T15:18:19;3.10;99.90
18175;DHT22;9212;50.894;16.714;2023-02-28T15:20:48;3.20;99.90
18175;DHT22;9212;50.894;16.714;2023-02-28T15:23:18;3.00;99.90
18175;DHT22;9212;50.894;16.714;2023-02-28T15:28:15;3.00;99.90
18175;DHT22;9212;50.894;16.714;2023-02-28T15:30:54;3.00;99.90
18175;DHT22;9212;50.894;16.714;2023-02-28T15:33:23;2.90;99.90
18175;DHT22;9212;50.894;16.714;2023-02-28T15:35:51;2.90;99.90
18175;DHT22;9212;50.894;16.714;2023-02-28T15:38:35;2.70;99.90
18175;DHT22;9212;50.894;16.714;2023-02-28T15:41:03;2.80;99.90
18175;DHT22;9212;50.894;16.714;2023-02-28T15:43:35;2.80;99.90
18175;DHT22;9212;50.894;16.714;2023-02-28T15:46:04;2.60;99.90
18175;DHT22;9212;50.894;16.714;2023-02-28T15:48:34;2.40;99.90
18175;DHT22;9212;50.894;16.714;2023-02-28T15:51:06;2.30;99.90
18175;DHT22;9212;50.894;16.714;2023-02-28T15:53:37;4.80;99.90
18175;DHT22;9212;50.894;16.714;2023-02-28T15:56:20;3.10;99.90
18175;DHT22;9212;50.894;16.714;2023-02-28T15:58:49;2.70;99.90
18175;DHT22;9212;50.894;16.714;2023-02-28T16:01:20;2.00;99.90
18175;DHT22;9212;50.894;16.714;2023-02-28T16:03:52;1.80;99.90
18175;DHT22;9212;50.894;16.714;2023-02-28T16:06:30;1.50;99.90
18175;DHT22;9212;50.894;16.714;2023-02-28T16:09:00;2.80;99.90
18175;DHT22;9212;50.894;16.714;2023-02-28T16:13:57;1.30;99.90
18175;DHT22;9212;50.894;16.714;2023-02-28T16:16:24;1.00;99.90
18175;DHT22;9212;50.894;16.714;2023-02-28T16:18:52;0.90;99.90
18175;DHT22;9212;50.894;16.714;2023-02-28T16:23:47;0.40;99.90
18175;DHT22;9212;50.894;16.714;2023-02-28T16:26:21;0.30;99.90
18175;DHT22;9212;50.894;16.714;2023-02-28T16:33:44;-0.60;99.90
18175;DHT22;9212;50.894;16.714;2023-02-28T16:36:17;-0.30;99.90
18175;DHT22;9212;50.894;16.714;2023-02-28T16:38:44;-0.10;99.90
18175;DHT22;9212;50.894;16.714;2023-02-28T16:41:19;-0.50;99.90
18175;DHT22;9212;50.894;16.714;2023-02-28T16:43:48;0.00;99.90
18175;DHT22;9212;50.894;16.714;2023-02-28T16:46:16;-0.80;99.90
18175;DHT22;9212;50.894;16.714;2023-02-28T16:51:14;-1.00;99.90
18175;DHT22;9212;50.894;16.714;2023-02-28T16:53:42;-0.40;99.90
18175;DHT22;9212;50.894;16.714;2023-02-28T16:56:16;-1.00;99.90
18175;DHT22;9212;50.894;16.714;2023-02-28T16:58:45;0.80;99.90
18175;DHT22;9212;50.894;16.714;2023-02-28T17:06:17;-1.40;99.90
18175;DHT22;9212;50.894;16.714;2023-02-28T17:16:17;-1.60;99.90
18175;DHT22;9212;50.894;16.714;2023-02-28T17:21:15;-1.50;99.90
18175;DHT22;9212;50.894;16.714;2023-02-28T17:26:13;-1.60;99.90
18175;DHT22;9212;50.894;16.714;2023-02-28T17:31:11;-1.70;99.90
18175;DHT22;9212;50.894;16.714;2023-02-28T17:33:39;-1.80;99.90
18175;DHT22;9212;50.894;16.714;2023-02-28T17:36:10;-1.90;99.90
18175;DHT22;9212;50.894;16.714;2023-02-28T17:41:10;-1.90;99.90
18175;DHT22;9212;50.894;16.714;2023-02-28T17:46:14;-2.10;99.90
18175;DHT22;9212;50.894;16.714;2023-02-28T17:51:13;-2.10;99.90
18175;DHT22;9212;50.894;16.714;2023-02-28T17:53:41;-2.10;99.90
18175;DHT22;9212;50.894;16.714;2023-02-28T17:56:12;-2.10;99.90
18175;DHT22;9212;50.894;16.714;2023-02-28T18:01:08;-2.20;99.90
18175;DHT22;9212;50.894;16.714;2023-02-28T18:03:39;-2.20;99.90
18175;DHT22;9212;50.894;16.714;2023-02-28T18:06:14;-2.30;99.90
18175;DHT22;9212;50.894;16.714;2023-02-28T18:21:07;-2.60;99.90
18175;DHT22;9212;50.894;16.714;2023-02-28T18:26:06;-2.60;99.90
18175;DHT22;9212;50.894;16.714;2023-02-28T18:31:05;-2.40;99.90
18175;DHT22;9212;50.894;16.714;2023-02-28T18:33:32;-2.50;99.90
18175;DHT22;9212;50.894;16.714;2023-02-28T18:38:28;-2.80;99.90
18175;DHT22;9212;50.894;16.714;2023-02-28T18:40:57;-1.90;99.90
18175;DHT22;9212;50.894;16.714;2023-02-28T18:43:25;-2.70;99.90
18175;DHT22;9212;50.894;16.714;2023-02-28T18:48:21;-2.70;99.90
18175;DHT22;9212;50.894;16.714;2023-02-28T18:55:46;-2.70;99.90
18175;DHT22;9212;50.894;16.714;2023-02-28T19:00:42;-1.90;99.90
18175;DHT22;9212;50.894;16.714;2023-02-28T19:03:11;-1.90;99.90
18175;DHT22;9212;50.894;16.714;2023-02-28T19:10:37;-1.90;99.90
18175;DHT22;9212;50.894;16.714;2023-02-28T19:13:08;-2.00;99.90
18175;DHT22;9212;50.894;16.714;2023-02-28T19:18:04;-3.00;99.90
18175;DHT22;9212;50.894;16.714;2023-02-28T19:30:23;-2.80;99.90
18175;DHT22;9212;50.894;16.714;2023-02-28T19:47:41;-3.00;99.90
18175;DHT22;9212;50.894;16.714;2023-02-28T20:02:30;-3.40;99.90
18175;DHT22;9212;50.894;16.714;2023-02-28T20:05:04;-3.30;99.90
18175;DHT22;9212;50.894;16.714;2023-02-28T20:22:17;-3.40;99.90
18175;DHT22;9212;50.894;16.714;2023-02-28T20:24:46;-3.40;99.90
18175;DHT22;9212;50.894;16.714;2023-02-28T20:56:43;-3.90;99.90
18175;DHT22;9212;50.894;16.714;2023-02-28T21:04:06;-4.00;99.90
18175;DHT22;9212;50.894;16.714;2023-02-28T21:06:35;-4.20;99.90
18175;DHT22;9212;50.894;16.714;2023-02-28T21:09:04;-3.90;99.90
18175;DHT22;9212;50.894;16.714;2023-02-28T21:11:33;-3.90;99.90
18175;DHT22;9212;50.894;16.714;2023-02-28T21:14:03;-4.00;99.90
18175;DHT22;9212;50.894;16.714;2023-02-28T21:16:31;-3.90;99.90
18175;DHT22;9212;50.894;16.714;2023-02-28T21:21:29;-4.00;99.90
18175;DHT22;9212;50.894;16.714;2023-02-28T21:28:53;-4.10;99.90
18175;DHT22;9212;50.894;16.714;2023-02-28T21:31:24;-4.10;99.90
18175;DHT22;9212;50.894;16.714;2023-02-28T21:36:20;-4.20;99.90
18175;DHT22;9212;50.894;16.714;2023-02-28T21:38:48;-4.20;99.90
18175;DHT22;9212;50.894;16.714;2023-02-28T21:41:17;-4.20;99.90
18175;DHT22;9212;50.894;16.714;2023-02-28T21:43:46;-4.30;99.90
18175;DHT22;9212;50.894;16.714;2023-02-28T21:46:14;-4.30;99.90
18175;DHT22;9212;50.894;16.714;2023-02-28T21:48:43;-4.40;99.90
18175;DHT22;9212;50.894;16.714;2023-02-28T21:51:15;-4.40;99.90
18175;DHT22;9212;50.894;16.714;2023-02-28T21:56:12;-3.90;99.90
18175;DHT22;9212;50.894;16.714;2023-02-28T22:01:09;-4.20;99.90
18175;DHT22;9212;50.894;16.714;2023-02-28T22:03:37;-4.10;99.90
18175;DHT22;9212;50.894;16.714;2023-02-28T22:06:10;-4.30;99.90
18175;DHT22;9212;50.894;16.714;2023-02-28T22:16:02;-4.40;99.90
18175;DHT22;9212;50.894;16.714;2023-02-28T22:23:26;-4.50;99.90
18175;DHT22;9212;50.894;16.714;2023-02-28T22:40:40;-4.50;99.90
18175;DHT22;9212;50.894;16.714;2023-02-28T22:43:08;-4.50;99.90
18175;DHT22;9212;50.894;16.714;2023-02-28T22:45:36;-4.60;99.90
18175;DHT22;9212;50.894;16.714;2023-02-28T22:57:54;-4.70;99.90
18175;DHT22;9212;50.894;16.714;2023-02-28T23:10:13;-4.50;99.90
18175;DHT22;9212;50.894;16.714;2023-02-28T23:15:16;-4.70;99.90
18175;DHT22;9212;50.894;16.714;2023-02-28T23:25:15;-4.70;99.90
18175;DHT22;9212;50.894;16.714;2023-02-28T23:30:11;-4.80;99.90
18175;DHT22;9212;50.894;16.714;2023-02-28T23:32:40;-4.70;99.90
18175;DHT22;9212;50.894;16.714;2023-02-28T23:35:08;-4.90;99.90
18175;DHT22;9212;50.894;16.714;2023-02-28T23:37:36;-4.70;99.90
18175;DHT22;9212;50.894;16.714;2023-02-28T23:40:05;-4.80;99.90
18175;DHT22;9212;50.894;16.714;2023-02-28T23:49:57;-4.90;99.90
